ADDS METAR Data INFO
IDs: Format: Raw Decoded Include TAF

Data at: 0944 UTC 25 Jun 2018

KEVV 250854Z AUTO A2998 RMK AO2 SLPNO 55007 PWINO $
KEVV 250754Z AUTO A2997 RMK AO2 SLPNO PWINO $
KEVV 250654Z AUTO A3000 RMK AO2 SLPNO PWINO $
KEVV 250554Z AUTO A3000 RMK AO2 SLPNO 6//// 403000200 53002 PWINO PNO $
KEVV 250454Z AUTO A2998 RMK AO2 RAEMM SLPNO P0008 PWINO $
KEVV 250408Z AUTO 00000KT 3SM +RA BR FEW045 OVC055 22/22 A2999 RMK AO2 P0006 T02220222
KEVV 250354Z AUTO 00000KT 2SM +RA BR BKN055 OVC070 22/22 A3000 RMK AO2 LTG DSNT ALQDS SLP154 P0006 T02220217
KEVV 250352Z AUTO 31004KT 2SM +RA BR BKN055 OVC070 22/22 A3000 RMK AO2 LTG DSNT ALQDS P0005
KEVV 250313Z 06003KT 10SM -RA BKN065 OVC080 22/21 A2999 RMK AO2 LTG DSNT ALQDS P0000 T02220211
KEVV 250254Z 00000KT 7SM VCTS -RA SCT048 BKN060 OVC075 22/21 A3000 RMK AO2 LTG DSNT E-SW TSB23E40 SLP153 P0027 60032 T02220211 53023
KEVV 250245Z 15004KT 3SM VCTS +RA BR BKN050 OVC080 22/22 A3000 RMK AO2 LTG DSNT ALQDS TSB23E40 P0026 T02220217
KEVV 250242Z 18009KT 2SM +RA BR BKN048 OVC080 22/22 A3000 RMK AO2 LTG DSNT ALQDS TSB23E40 P0024 T02220217
KEVV 250239Z 20009KT 1 3/4SM +TSRA BR BKN048 OVC070 23/22 A3000 RMK AO2 LTG DSNT ALQDS TSB23 P0021 T02280217
KEVV 250223Z 18004KT 2 1/2SM +TSRA BR SCT050 BKN075 OVC095 24/23 A2999 RMK AO2 LTG DSNT SE AND S TSB23 P0009 T02390228
KEVV 250203Z 00000KT 5SM VCTS RA BR BKN065 OVC085 25/23 A2998 RMK AO2 LTG DSNT SW AND W P0002 T02500228
KEVV 250154Z 00000KT 4SM +RA BR BKN060 BKN075 OVC100 24/23 A2998 RMK AO2 LTG DSNT SW AND W RAB10 SLP147 P0005 T02440233
KEVV 250054Z 00000KT 10SM FEW035 FEW110 26/22 A2994 RMK AO2 SLP136 T02610222
KEVV 242354Z 10005KT 10SM FEW033 27/22 A2993 RMK AO2 RAB29E45 SLP130 P0000 60000 T02670222 10300 20267 58008
KEVV 242254Z 11005KT 10SM FEW120 27/22 A2995 RMK AO2 SLP137 T02720222
KEVV 242154Z 04005KT 10SM SCT045 28/22 A2995 RMK AO2 RAE2057 SLP139 P0000 T02780222
KEVV 242054Z 00000KT 10SM -RA BKN039 BKN080 BKN110 28/21 A2995 RMK AO2 LTG DSNT S RAB28 SLP138 P0000 60000 T02830211 58001
KEVV 241954Z 27005KT 10SM FEW060 BKN085 29/21 A2997 RMK AO2 LTG DSNT SW SLP144 T02890211
KEVV 241854Z 23004KT 10SM BKN048 29/21 A2998 RMK AO2 SLP147 T02940206
KEVV 241754Z VRB03KT 10SM BKN048 30/19 A2995 RMK AO2 SLP139 T03000194 10300 20217 50000
KEVV 241654Z 00000KT 10SM BKN035 29/20 A2996 RMK AO2 SLP142 T02890200
KEVV 241554Z VRB03KT 10SM BKN034 28/21 A2997 RMK AO2 SLP145 T02830206
KEVV 241454Z 02004KT 10SM FEW030 28/21 A2995 RMK AO2 SLP139 T02780206 51013
KEVV 241354Z 08003KT 10SM SCT030 26/19 A2995 RMK AO2 SLP137 T02560194
KEVV 241254Z 04003KT 10SM SCT029 25/20 A2994 RMK AO2 SLP134 T02500200
KEVV 241154Z 00000KT 10SM SCT029 22/21 A2991 RMK AO2 SLP126 T02170206 10228 20200 53015
KEVV 241054Z 00000KT 9SM CLR 21/20 A2989 RMK AO2 SLP118 T02060200
KEVV 240954Z AUTO 00000KT 10SM CLR 21/20 A2988 RMK AO2 SLP114 T02060200
KEVV 240854Z AUTO 35003KT 10SM FEW031 21/21 A2987 RMK AO2 SLP111 T02110206 53008
KEVV 240754Z AUTO 00000KT 10SM CLR 22/21 A2986 RMK AO2 SLP106 T02220211
KEVV 240654Z AUTO 00000KT 10SM BKN031 BKN038 OVC070 22/21 A2985 RMK AO2 SLP105 T02220211
KEVV 240554Z AUTO 01004KT 10SM CLR 22/21 A2985 RMK AO2 SLP103 T02220211 10272 20222 402780189 50005
KEVV 240454Z AUTO 00000KT 10SM BKN050 BKN070 BKN090 23/22 A2985 RMK AO2 SLP104 T02330217
KEVV 240354Z AUTO 00000KT 10SM OVC060 23/22 A2984 RMK AO2 SLP101 T02330222
KEVV 240254Z 00000KT 10SM FEW070 24/21 A2983 RMK AO2 SLP098 T02390206 53011
KEVV 240154Z 00000KT 10SM CLR 24/21 A2981 RMK AO2 SLP090 T02390211
KEVV 240054Z 00000KT 10SM BKN095 26/21 A2981 RMK AO2 SLP089 T02560206
KEVV 232354Z 28003KT 10SM CLR 27/21 A2980 RMK AO2 SLP087 T02720206 10278 20244 55004
KEVV 232254Z 00000KT 10SM FEW033 27/20 A2980 RMK AO2 SLP085 T02720200
KEVV 232154Z 25007KT 10SM FEW035 SCT070 27/20 A2981 RMK AO2 SLP090 T02670200